Time;durP1;ratioP1;P1;durP2;ratioP2;P2;SDS_P1;SDS_P2;PMS_P1;PMS_P2;Temp;Humidity;BMP_temperature;BMP_pressure;BME280_temperature;BME280_humidity;BME280_pressure;Samples;Min_cycle;Max_cycle;Signal;HPM_P1;HPM_P2
2022/03/21 00:01:12;;;;;;;53.08;29.48;;;;;;;2.99;75.50;102934.81;5094060;28;20477;-74
2022/03/21 00:03:38;;;;;;;50.10;30.10;;;;;;;3.08;74.89;102940.25;5093278;28;20536;-73
2022/03/21 00:06:03;;;;;;;51.08;29.48;;;;;;;3.01;75.31;102940.66;5091333;28;20020;-74
2022/03/21 00:08:29;;;;;;;52.05;30.23;;;;;;;2.91;75.42;102937.81;5093898;28;20048;-73
2022/03/21 00:10:56;;;;;;;54.35;29.30;;;;;;;2.87;75.71;102934.56;5093516;28;20042;-75
2022/03/21 00:13:22;;;;;;;49.92;29.20;;;;;;;2.85;75.46;102940.66;5075542;28;20135;-74
2022/03/21 00:15:50;;;;;;;49.72;30.05;;;;;;;2.83;75.78;102938.22;5093515;28;20042;-74
2022/03/21 00:18:16;;;;;;;55.20;30.88;;;;;;;2.84;75.51;102949.25;5093392;28;20026;-76
2022/03/21 00:20:43;;;;;;;49.65;29.88;;;;;;;2.79;75.50;102944.41;5075553;28;20028;-75
2022/03/21 00:23:09;;;;;;;54.33;30.92;;;;;;;2.83;75.99;102947.59;5092291;28;20027;-75
2022/03/21 00:25:34;;;;;;;53.08;29.20;;;;;;;2.81;75.68;102951.97;5093406;28;20028;-75
2022/03/21 00:28:00;;;;;;;49.58;29.38;;;;;;;2.89;75.23;102952.38;5092674;28;20036;-73
2022/03/21 00:30:27;;;;;;;54.25;29.00;;;;;;;2.98;75.28;102948.50;5074162;28;20475;-73
2022/03/21 00:32:52;;;;;;;51.80;30.40;;;;;;;2.93;75.17;102946.19;5092337;28;20067;-73
2022/03/21 00:35:19;;;;;;;52.17;29.60;;;;;;;2.93;75.28;102944.47;5092381;28;20059;-73
2022/03/21 00:37:45;;;;;;;48.50;29.42;;;;;;;2.80;74.72;102945.22;5092908;28;20470;-74
2022/03/21 00:40:12;;;;;;;51.80;29.58;;;;;;;2.83;75.46;102952.72;5092995;28;20455;-74
2022/03/21 00:42:39;;;;;;;50.90;28.92;;;;;;;2.70;75.10;102944.88;5093306;28;20498;-73
2022/03/21 00:45:09;;;;;;;49.63;30.02;;;;;;;2.62;75.65;102947.03;5075160;28;20028;-75
2022/03/21 00:47:35;;;;;;;50.85;29.77;;;;;;;2.62;75.43;102947.84;5093053;28;20023;-73
2022/03/21 00:50:00;;;;;;;48.45;29.48;;;;;;;2.55;75.59;102941.41;5092839;28;20040;-73
2022/03/21 00:52:25;;;;;;;53.40;29.85;;;;;;;2.69;74.92;102944.06;5092815;28;20039;-73
2022/03/21 00:54:50;;;;;;;49.10;28.90;;;;;;;2.49;75.06;102941.75;5092971;28;20035;-74
2022/03/21 00:57:16;;;;;;;49.88;29.05;;;;;;;2.61;74.56;102946.19;5093311;28;20024;-73
2022/03/21 00:59:41;;;;;;;49.85;28.52;;;;;;;2.66;73.91;102934.00;5093247;28;20398;-73
2022/03/21 01:02:08;;;;;;;48.53;28.63;;;;;;;2.61;73.51;102937.72;5092973;28;20048;-74
2022/03/21 01:04:35;;;;;;;50.05;29.40;;;;;;;2.48;74.83;102950.31;5093163;28;20105;-73
2022/03/21 01:07:00;;;;;;;49.47;28.90;;;;;;;2.58;74.90;102945.53;5093636;28;20028;-73
2022/03/21 01:09:27;;;;;;;51.67;29.15;;;;;;;2.50;74.48;102940.81;5075327;28;20046;-74
2022/03/21 01:11:52;;;;;;;48.92;28.63;;;;;;;2.60;74.22;102943.72;5093560;28;20111;-73
2022/03/21 01:14:17;;;;;;;50.65;28.17;;;;;;;2.69;73.45;102948.34;5093462;28;20453;-74
2022/03/21 01:16:43;;;;;;;50.30;28.58;;;;;;;2.60;74.31;102952.22;5075119;28;20444;-73
2022/03/21 01:19:09;;;;;;;48.05;28.73;;;;;;;2.54;74.50;102942.31;5093145;28;20038;-73
2022/03/21 01:21:34;;;;;;;49.50;28.33;;;;;;;2.52;74.70;102945.88;5075018;28;20077;-74
2022/03/21 01:24:00;;;;;;;51.40;29.55;;;;;;;2.41;75.10;102954.06;5093223;28;20020;-74
2022/03/21 01:26:25;;;;;;;50.80;29.15;;;;;;;2.31;75.64;102948.63;5093268;28;20020;-75
2022/03/21 01:28:51;;;;;;;48.00;28.50;;;;;;;2.29;75.77;102953.00;5093038;28;20031;-75
2022/03/21 01:31:16;;;;;;;50.50;29.65;;;;;;;2.24;75.78;102957.50;5078153;28;20452;-74
2022/03/21 01:33:41;;;;;;;51.42;28.80;;;;;;;2.25;75.98;102962.53;5096847;28;20031;-74
2022/03/21 01:36:08;;;;;;;54.17;27.67;;;;;;;2.24;75.65;102952.41;5078349;28;20027;-74
2022/03/21 01:38:34;;;;;;;49.35;28.27;;;;;;;2.25;76.03;102967.63;5078410;28;20036;-75
2022/03/21 01:40:59;;;;;;;47.08;28.85;;;;;;;2.12;76.18;102937.72;5096490;28;20016;-73
2022/03/21 01:43:25;;;;;;;48.83;29.20;;;;;;;2.25;75.98;102959.97;5078245;28;20020;-74
2022/03/21 01:45:50;;;;;;;50.20;28.27;;;;;;;2.20;76.36;102959.38;5096646;28;20107;-75
2022/03/21 01:48:16;;;;;;;46.85;28.52;;;;;;;2.15;76.44;102963.06;5077939;28;20081;-74
2022/03/21 01:50:42;;;;;;;50.13;28.35;;;;;;;2.16;76.64;102963.00;5096072;28;20054;-75
2022/03/21 01:55:54;;;;;;;51.50;28.23;;;;;;;2.10;76.21;102965.88;5081235;28;20034;-74
2022/03/21 01:58:20;;;;;;;49.90;29.30;;;;;;;2.09;76.48;102965.94;5077775;28;20023;-75
2022/03/21 02:00:46;;;;;;;50.22;29.58;;;;;;;2.02;76.77;102961.16;5096148;28;20044;-75
2022/03/21 02:03:12;;;;;;;55.70;29.33;;;;;;;1.89;76.80;102949.09;5096328;28;20062;-74
2022/03/21 02:05:38;;;;;;;48.15;28.67;;;;;;;1.93;76.85;102966.72;5077910;28;20020;-75
2022/03/21 02:08:04;;;;;;;50.72;29.58;;;;;;;1.88;77.14;102970.41;5094427;28;20372;-74
2022/03/21 02:10:29;;;;;;;51.58;29.02;;;;;;;1.86;76.87;102964.53;5095910;28;20062;-75
2022/03/21 02:12:55;;;;;;;47.80;29.45;;;;;;;1.82;77.02;102965.63;5096122;28;20028;-74
2022/03/21 02:15:20;;;;;;;52.50;29.65;;;;;;;1.78;76.66;102967.47;5077857;28;20463;-74
2022/03/21 02:17:47;;;;;;;49.80;28.35;;;;;;;1.81;76.84;102964.75;5094506;28;20089;-75
2022/03/21 02:20:18;;;;;;;51.72;29.52;;;;;;;1.75;77.75;102963.34;5095856;28;20095;-75
2022/03/21 02:22:58;;;;;;;58.47;30.42;;;;;;;1.72;77.13;102963.50;5095907;28;20024;-75
2022/03/21 02:25:32;;;;;;;54.13;29.38;;;;;;;1.66;77.38;102958.69;5095811;28;20497;-75
2022/03/21 02:28:00;;;;;;;54.47;29.30;;;;;;;1.65;77.68;102953.69;5096048;28;20114;-75
2022/03/21 02:30:28;;;;;;;54.03;30.17;;;;;;;1.61;77.46;102967.47;5095616;28;20032;-75
2022/03/21 02:32:54;;;;;;;52.95;28.20;;;;;;;1.55;77.71;102972.00;5095664;28;20081;-75
2022/03/21 02:35:20;;;;;;;52.15;29.80;;;;;;;1.57;77.77;102971.91;5095656;28;20422;-75
2022/03/21 02:37:46;;;;;;;48.00;27.80;;;;;;;1.52;77.44;102969.56;5095393;28;20024;-73
2022/03/21 02:40:12;;;;;;;50.03;27.50;;;;;;;1.32;77.98;102972.25;5095459;28;20026;-75
2022/03/21 02:42:37;;;;;;;47.60;28.10;;;;;;;1.60;77.42;102968.38;5076991;28;20036;-73
2022/03/21 02:45:05;;;;;;;49.08;28.13;;;;;;;1.72;77.51;102967.78;5094917;28;20421;-74
2022/03/21 02:47:31;;;;;;;48.67;27.27;;;;;;;1.74;77.49;102966.81;5077204;28;20494;-72
2022/03/21 02:49:59;;;;;;;48.40;28.15;;;;;;;1.77;77.17;102969.19;5094670;28;20048;-74
2022/03/21 02:52:28;;;;;;;45.78;27.02;;;;;;;1.91;77.09;102968.53;5094605;28;20518;-71
2022/03/21 02:54:53;;;;;;;48.90;27.67;;;;;;;1.93;76.46;102968.47;5076385;28;20035;-71
2022/03/21 02:57:18;;;;;;;49.35;28.65;;;;;;;1.91;76.88;102963.41;5094510;28;20032;-71
2022/03/21 02:59:44;;;;;;;47.58;27.98;;;;;;;1.85;77.07;102968.81;5094479;28;20109;-71
2022/03/21 03:02:10;;;;;;;50.05;27.95;;;;;;;1.93;76.67;102964.19;5094625;28;20023;-73
2022/03/21 03:04:35;;;;;;;50.30;28.10;;;;;;;1.94;75.55;102965.81;5076236;28;20077;-71
2022/03/21 03:07:00;;;;;;;51.90;28.60;;;;;;;1.95;76.17;102972.56;5094291;28;20032;-72
2022/03/21 03:09:26;;;;;;;50.13;27.83;;;;;;;1.82;76.00;102923.09;5094352;28;20433;-71
2022/03/21 03:11:51;;;;;;;48.70;28.27;;;;;;;2.05;75.70;102969.56;5094361;28;20027;-71
2022/03/21 03:14:16;;;;;;;52.17;29.25;;;;;;;2.09;75.73;102971.88;5094176;28;20475;-71
2022/03/21 03:16:42;;;;;;;47.53;28.90;;;;;;;1.99;75.69;102981.72;5093685;28;20058;-71
2022/03/21 03:19:07;;;;;;;48.72;28.90;;;;;;;2.01;76.10;102981.63;5076592;28;20069;-71
2022/03/21 03:21:40;;;;;;;50.55;28.92;;;;;;;1.94;76.45;102977.75;5093458;28;20039;-71
2022/03/21 03:24:08;;;;;;;48.95;27.80;;;;;;;1.87;76.32;102977.22;5076554;28;20441;-71
2022/03/21 03:26:34;;;;;;;60.75;29.27;;;;;;;1.75;76.99;102970.16;5093150;28;20028;-71
2022/03/21 03:28:59;;;;;;;51.13;29.17;;;;;;;1.64;76.46;102977.50;5094501;28;20078;-71
2022/03/21 03:31:25;;;;;;;51.28;28.63;;;;;;;1.55;76.85;102982.19;5094431;28;20024;-71
2022/03/21 03:33:51;;;;;;;47.55;28.05;;;;;;;1.49;77.42;102989.28;5076202;28;20478;-71
2022/03/21 03:36:16;;;;;;;50.08;27.55;;;;;;;1.50;77.50;102985.84;5093305;28;20028;-71
2022/03/21 03:38:43;;;;;;;52.28;28.35;;;;;;;1.41;77.74;102993.91;5076092;28;20379;-71
2022/03/21 03:41:09;;;;;;;49.03;28.90;;;;;;;1.37;78.40;102984.78;5094297;28;20094;-72
2022/03/21 03:43:35;;;;;;;51.47;29.38;;;;;;;1.53;78.23;102988.25;5094193;28;20031;-71
2022/03/21 03:46:01;;;;;;;48.08;28.83;;;;;;;1.58;77.88;102971.84;5094084;28;20034;-71
2022/03/21 03:48:28;;;;;;;53.97;30.35;;;;;;;1.82;77.47;102997.03;5093739;28;20378;-71
2022/03/21 03:50:53;;;;;;;53.45;30.83;;;;;;;1.90;77.85;102989.84;5075800;28;20028;-71
2022/03/21 03:53:18;;;;;;;60.35;31.30;;;;;;;2.07;77.48;102993.25;5093453;28;20364;-71
2022/03/21 03:55:44;;;;;;;61.03;32.75;;;;;;;2.17;76.87;102990.16;5093851;28;20471;-71
2022/03/21 03:58:10;;;;;;;55.50;30.50;;;;;;;2.24;76.41;102994.06;5092597;28;20035;-70
2022/03/21 04:00:35;;;;;;;60.22;31.27;;;;;;;2.34;76.01;102984.19;5093776;28;20020;-70
2022/03/21 04:05:45;;;;;;;54.95;31.73;;;;;;;2.28;76.39;102993.91;5093900;28;20114;-70
2022/03/21 04:08:10;;;;;;;55.05;30.88;;;;;;;2.16;77.20;102991.06;5093766;28;20447;-71
2022/03/21 04:10:36;;;;;;;55.15;31.98;;;;;;;2.21;77.65;102990.81;5093437;28;20028;-71
2022/03/21 04:13:01;;;;;;;55.53;31.63;;;;;;;2.23;77.47;102992.41;5093772;28;20055;-71
2022/03/21 04:15:27;;;;;;;54.40;30.73;;;;;;;2.13;77.37;102987.81;5093501;28;20035;-71
2022/03/21 04:17:53;;;;;;;52.50;31.63;;;;;;;2.13;77.58;102991.22;5075688;28;20032;-71
2022/03/21 04:20:20;;;;;;;57.90;32.03;;;;;;;2.08;77.71;102998.28;5093638;28;20016;-71
2022/03/21 04:22:45;;;;;;;57.42;31.55;;;;;;;2.09;78.17;102989.72;5093675;28;20455;-71
2022/03/21 04:25:11;;;;;;;56.13;32.08;;;;;;;2.22;78.06;102995.03;5075481;28;20031;-70
2022/03/21 04:27:37;;;;;;;57.58;32.67;;;;;;;2.30;77.81;102997.19;5075619;28;20475;-70
2022/03/21 04:30:04;;;;;;;57.97;31.20;;;;;;;2.29;77.58;102985.34;5093470;28;20032;-70
2022/03/21 04:32:29;;;;;;;61.38;32.83;;;;;;;2.18;77.16;102996.91;5075345;28;20055;-70
2022/03/21 04:34:54;;;;;;;58.47;31.70;;;;;;;2.05;77.97;102987.41;5093807;28;20458;-70
2022/03/21 04:37:20;;;;;;;58.50;32.25;;;;;;;2.20;78.45;102995.09;5093469;28;20028;-71
2022/03/21 04:39:46;;;;;;;59.13;32.25;;;;;;;2.13;78.09;102998.03;5075624;28;20410;-72
2022/03/21 04:42:11;;;;;;;63.05;31.98;;;;;;;2.03;78.36;102995.94;5075363;28;20024;-71
2022/03/21 04:44:36;;;;;;;56.70;32.15;;;;;;;1.91;78.38;103001.66;5093477;28;20107;-71
2022/03/21 04:47:02;;;;;;;59.03;31.77;;;;;;;1.90;78.35;103004.28;5075321;28;20052;-71
2022/03/21 04:49:27;;;;;;;63.95;32.55;;;;;;;1.89;78.38;103008.56;5092165;28;20048;-71
2022/03/21 04:51:53;;;;;;;55.38;31.92;;;;;;;1.80;78.95;103006.47;5093266;28;20046;-71
2022/03/21 04:54:18;;;;;;;56.80;31.80;;;;;;;1.79;78.91;103010.75;5075380;28;20118;-72
2022/03/21 04:56:43;;;;;;;56.40;31.77;;;;;;;1.73;79.29;103021.25;5093463;28;20451;-71
2022/03/21 04:59:09;;;;;;;56.25;31.15;;;;;;;1.78;79.42;103015.91;5093669;28;20035;-72
2022/03/21 05:01:36;;;;;;;56.95;31.77;;;;;;;1.73;78.88;103020.44;5075173;28;20067;-71
2022/03/21 05:04:02;;;;;;;56.30;31.98;;;;;;;1.67;79.48;103016.44;5093358;28;20028;-71
2022/03/21 05:06:27;;;;;;;57.53;31.90;;;;;;;1.66;79.62;103013.97;5095726;28;20129;-71
2022/03/21 05:08:52;;;;;;;59.03;32.28;;;;;;;1.69;79.95;103014.63;5097178;28;20473;-71
2022/03/21 05:11:17;;;;;;;55.13;30.95;;;;;;;1.71;79.43;103019.66;5097112;28;20028;-71
2022/03/21 05:13:43;;;;;;;55.67;32.15;;;;;;;1.61;79.57;103021.00;5097206;28;20028;-71
2022/03/21 05:16:09;;;;;;;56.83;30.83;;;;;;;1.62;79.91;103025.22;5097012;28;20482;-72
2022/03/21 05:18:34;;;;;;;56.38;31.50;;;;;;;1.60;79.94;103025.28;5078433;28;20039;-71
2022/03/21 05:21:01;;;;;;;59.83;32.50;;;;;;;1.61;79.76;103018.44;5079154;28;20039;-71
2022/03/21 05:31:38;;;;;;;53.78;30.05;;;;;;;1.56;79.43;102988.09;5096724;28;20466;-71
2022/03/21 05:36:47;;;;;;;55.75;31.25;;;;;;;1.53;80.50;103024.75;5096900;28;20423;-71
2022/03/21 05:39:12;;;;;;;57.13;31.67;;;;;;;1.56;80.76;103033.97;5095879;28;20028;-71
2022/03/21 05:41:38;;;;;;;57.28;31.75;;;;;;;1.52;80.28;103019.72;5100930;28;20069;-71
2022/03/21 05:44:03;;;;;;;56.53;31.00;;;;;;;1.39;80.22;103016.09;5081100;28;20028;-72
2022/03/21 05:46:30;;;;;;;57.17;31.65;;;;;;;1.50;80.38;103031.72;5082712;28;20028;-71
2022/03/21 05:48:59;;;;;;;56.30;31.25;;;;;;;1.24;80.29;102989.63;5089848;28;20051;-71
2022/03/21 05:51:30;;;;;;;58.53;30.33;;;;;;;1.62;80.36;103038.78;5107252;28;20058;-70
2022/03/21 05:53:57;;;;;;;55.78;30.73;;;;;;;1.49;80.32;103027.50;5106452;28;20024;-70
2022/03/21 05:56:25;;;;;;;59.13;31.73;;;;;;;1.46;80.68;103040.38;5100311;28;20020;-70
2022/03/21 05:58:51;;;;;;;63.05;32.67;;;;;;;1.46;80.52;103038.66;5094630;28;20031;-70
2022/03/21 06:01:21;;;;;;;56.60;32.20;;;;;;;1.57;80.57;103035.63;5096820;28;20024;-70
2022/03/21 06:03:48;;;;;;;57.00;31.42;;;;;;;1.58;80.11;103038.09;5095842;28;20012;-70
2022/03/21 06:06:15;;;;;;;55.15;31.67;;;;;;;1.71;79.39;103040.88;5094656;28;20182;-70
2022/03/21 06:08:40;;;;;;;54.90;31.38;;;;;;;1.76;79.67;103038.13;5096066;28;20026;-72
2022/03/21 06:11:08;;;;;;;54.15;30.98;;;;;;;1.75;79.77;103042.38;5095705;28;20090;-71
2022/03/21 06:13:35;;;;;;;56.30;31.20;;;;;;;1.83;79.71;103044.56;5077484;28;20028;-70
2022/03/21 06:16:03;;;;;;;57.92;31.65;;;;;;;1.81;79.65;103051.44;5095283;28;20020;-70
2022/03/21 06:18:29;;;;;;;56.33;31.27;;;;;;;1.72;79.79;103016.22;5095639;28;20081;-71
2022/03/21 06:20:55;;;;;;;57.45;31.40;;;;;;;1.94;79.76;103052.50;5095665;28;20012;-71
2022/03/21 06:23:20;;;;;;;57.13;31.58;;;;;;;1.99;79.45;103059.97;5095737;28;20035;-71
2022/03/21 06:25:46;;;;;;;53.40;30.95;;;;;;;2.07;79.72;103065.47;5095661;28;20122;-71
2022/03/21 06:28:11;;;;;;;56.67;31.20;;;;;;;2.21;79.12;103062.25;5095505;28;20035;-71
2022/03/21 06:30:37;;;;;;;54.45;30.65;;;;;;;2.28;78.79;103066.16;5095199;28;20448;-72
2022/03/21 06:33:02;;;;;;;57.78;32.42;;;;;;;2.36;79.34;103068.31;5095779;28;20095;-73
2022/03/21 06:35:28;;;;;;;56.92;31.08;;;;;;;2.44;79.31;103071.31;5095502;28;20431;-71
2022/03/21 06:37:53;;;;;;;59.60;31.83;;;;;;;2.43;79.02;103064.56;5077572;28;20028;-71
2022/03/21 06:40:18;;;;;;;59.03;30.85;;;;;;;2.66;78.44;103078.72;5077192;28;20066;-71
2022/03/21 06:42:44;;;;;;;59.83;31.92;;;;;;;2.93;78.38;103068.78;5095332;28;20108;-71
2022/03/21 06:45:09;;;;;;;55.78;31.45;;;;;;;3.16;76.78;103080.34;5095301;28;20153;-71
2022/03/21 06:47:35;;;;;;;52.97;30.88;;;;;;;3.16;77.10;103082.88;5094976;28;20032;-71
2022/03/21 06:50:00;;;;;;;57.97;32.05;;;;;;;3.09;77.28;103081.59;5076682;28;20044;-71
2022/03/21 06:52:26;;;;;;;60.63;31.75;;;;;;;3.24;76.86;103088.41;5094953;28;20390;-72
2022/03/21 06:54:51;;;;;;;62.30;31.92;;;;;;;3.34;76.77;103078.53;5095092;28;20038;-72
2022/03/21 06:57:17;;;;;;;59.92;32.70;;;;;;;3.38;76.64;103090.25;5094620;28;20444;-73
2022/03/21 06:59:46;;;;;;;53.33;31.52;;;;;;;3.48;76.52;103088.00;5076475;28;20097;-72
2022/03/21 07:02:12;;;;;;;56.85;32.22;;;;;;;3.54;76.99;103092.75;5094551;28;20024;-73
2022/03/21 07:04:37;;;;;;;55.58;31.40;;;;;;;3.54;76.74;103096.19;5075749;28;20551;-72
2022/03/21 07:07:03;;;;;;;52.70;30.08;;;;;;;3.50;77.22;103093.84;5093925;28;20028;-72
2022/03/21 07:09:28;;;;;;;55.55;31.15;;;;;;;3.65;77.58;103097.31;5076310;28;20023;-70
2022/03/21 07:11:54;;;;;;;56.45;31.10;;;;;;;3.84;76.86;103097.94;5093870;28;20073;-72
2022/03/21 07:14:20;;;;;;;54.38;30.92;;;;;;;4.10;76.16;103109.25;5094634;28;20028;-71
2022/03/21 07:16:45;;;;;;;51.67;30.70;;;;;;;4.39;75.89;103117.00;5094848;28;20490;-72
2022/03/21 07:19:11;;;;;;;52.97;30.60;;;;;;;4.53;75.33;103117.00;5076540;28;20020;-72
2022/03/21 07:21:36;;;;;;;52.17;28.85;;;;;;;4.59;74.96;103115.84;5094463;28;20028;-72
2022/03/21 07:24:02;;;;;;;49.22;29.40;;;;;;;4.79;74.61;103122.34;5094587;28;20413;-71
2022/03/21 07:26:27;;;;;;;50.58;28.15;;;;;;;4.91;74.42;103119.84;5075581;28;20397;-72
2022/03/21 07:28:52;;;;;;;54.25;28.23;;;;;;;5.07;74.12;103122.31;5074991;28;20501;-72
2022/03/21 07:31:18;;;;;;;48.13;25.88;;;;;;;5.19;74.47;103116.44;5075078;28;20036;-71
2022/03/21 07:33:43;;;;;;;46.30;26.45;;;;;;;5.73;73.23;103125.09;5091794;28;20118;-71
2022/03/21 07:36:09;;;;;;;40.40;22.70;;;;;;;10.45;59.90;103116.13;5074711;28;20054;-73
2022/03/21 07:38:35;;;;;;;35.67;21.38;;;;;;;12.90;51.27;103129.69;5092913;28;20020;-72
2022/03/21 07:41:02;;;;;;;39.10;20.25;;;;;;;13.57;48.91;103113.84;5074538;28;20090;-71
2022/03/21 07:43:27;;;;;;;35.63;21.65;;;;;;;15.40;43.82;103116.97;5091598;28;20119;-72
2022/03/21 07:48:36;;;;;;;30.60;19.73;;;;;;;15.00;44.33;103115.94;5094359;28;20135;-72
2022/03/21 07:51:04;;;;;;;31.58;19.20;;;;;;;16.32;42.88;103112.31;5093887;28;20064;-72
2022/03/21 07:53:30;;;;;;;26.45;17.00;;;;;;;17.12;39.66;103118.16;5075831;28;20020;-73
2022/03/21 07:55:56;;;;;;;23.60;16.00;;;;;;;16.23;40.78;103116.75;5094174;28;20475;-74
2022/03/21 07:58:22;;;;;;;26.10;15.50;;;;;;;16.64;39.60;103113.97;5091246;28;20379;-69
2022/03/21 08:00:47;;;;;;;32.95;16.08;;;;;;;16.78;39.36;103121.13;5092496;28;20023;-68
2022/03/21 08:03:14;;;;;;;20.40;14.70;;;;;;;17.05;38.74;103124.22;5092296;28;20409;-68
2022/03/21 08:05:40;;;;;;;22.33;14.77;;;;;;;16.80;39.43;103123.56;5092320;28;20024;-68
2022/03/21 08:08:07;;;;;;;22.80;14.75;;;;;;;16.75;39.63;103124.06;5074980;28;20057;-68
2022/03/21 08:10:32;;;;;;;21.50;14.23;;;;;;;17.37;38.67;103125.81;5074325;28;20438;-68
2022/03/21 08:12:58;;;;;;;19.92;14.65;;;;;;;17.33;37.52;103129.78;5093625;28;20016;-69
2022/03/21 08:15:23;;;;;;;25.77;15.05;;;;;;;17.51;37.66;103129.47;5093388;28;20024;-71
2022/03/21 08:18:03;;;;;;;20.17;14.00;;;;;;;18.03;35.62;103100.72;5093456;28;20031;-69
2022/03/21 08:20:34;;;;;;;23.33;14.07;;;;;;;18.77;35.20;103125.22;5077186;28;20047;-68
2022/03/21 08:23:08;;;;;;;21.42;13.80;;;;;;;18.62;35.31;103117.38;5092556;28;20379;-69
2022/03/21 08:25:38;;;;;;;22.15;13.70;;;;;;;18.20;35.75;103118.84;5091719;28;20124;-69
2022/03/21 08:28:05;;;;;;;18.88;13.73;;;;;;;18.88;34.60;103128.19;5093271;28;20032;-69
2022/03/21 08:30:33;;;;;;;18.48;13.55;;;;;;;18.53;34.87;103123.69;5074703;28;20498;-69
2022/03/21 08:32:59;;;;;;;19.35;13.25;;;;;;;18.24;35.08;103125.34;5092840;28;20033;-68
2022/03/21 08:35:25;;;;;;;22.75;14.55;;;;;;;17.68;36.49;103119.69;5093760;28;20024;-68
2022/03/21 08:37:50;;;;;;;25.55;14.10;;;;;;;17.90;36.58;103113.63;5075402;28;20150;-68
2022/03/21 08:40:16;;;;;;;23.55;14.10;;;;;;;19.03;33.78;103122.06;5097180;28;20486;-69
2022/03/21 08:42:42;;;;;;;22.45;13.48;;;;;;;18.81;34.61;103121.22;5097409;28;20020;-69
2022/03/21 08:45:08;;;;;;;23.15;14.77;;;;;;;19.91;32.17;103114.72;5097906;28;20073;-67
2022/03/21 08:47:34;;;;;;;18.75;13.95;;;;;;;19.11;33.88;103117.53;5096070;28;20038;-69
2022/03/21 08:50:00;;;;;;;22.70;13.63;;;;;;;19.61;32.19;103102.59;5097541;28;20065;-70
2022/03/21 08:52:26;;;;;;;23.83;13.93;;;;;;;20.19;31.22;103117.31;5079699;28;20111;-69
2022/03/21 08:54:51;;;;;;;22.13;13.95;;;;;;;20.11;31.06;103126.19;5097742;28;20049;-68
2022/03/21 08:57:17;;;;;;;21.70;14.48;;;;;;;20.62;29.76;103117.94;5096913;28;20332;-68
2022/03/21 08:59:42;;;;;;;22.20;13.93;;;;;;;19.90;29.81;103100.81;5094422;28;20024;-70
2022/03/21 09:02:10;;;;;;;20.65;13.90;;;;;;;19.23;31.54;103123.06;5076972;28;20081;-68
2022/03/21 09:04:36;;;;;;;23.08;15.15;;;;;;;21.41;28.38;103119.09;5095399;28;20051;-68
2022/03/21 09:07:02;;;;;;;19.20;13.68;;;;;;;21.97;26.98;103115.97;5076936;28;20547;-70
2022/03/21 09:09:27;;;;;;;22.95;14.73;;;;;;;20.47;27.33;103098.88;5076817;28;20081;-70
2022/03/21 09:11:52;;;;;;;20.10;14.07;;;;;;;22.15;25.48;103114.50;5095070;28;20028;-70
2022/03/21 09:14:18;;;;;;;19.15;13.65;;;;;;;20.40;26.71;103109.34;5095241;28;20074;-69
2022/03/21 09:16:43;;;;;;;18.15;13.40;;;;;;;21.54;25.47;103116.44;5094297;28;20522;-71
2022/03/21 09:19:09;;;;;;;17.25;13.20;;;;;;;21.02;25.29;103099.63;5095478;28;20027;-71
2022/03/21 09:21:38;;;;;;;18.70;13.15;;;;;;;22.19;25.08;103121.81;5094551;28;20643;-69
2022/03/21 09:24:04;;;;;;;22.85;13.45;;;;;;;22.17;24.12;103115.09;5095390;28;20035;-69
2022/03/21 09:26:30;;;;;;;19.38;13.07;;;;;;;21.13;25.61;103122.69;5076443;28;20020;-69
2022/03/21 09:29:05;;;;;;;19.30;12.50;;;;;;;21.57;24.95;103118.66;5094660;28;20027;-69
2022/03/21 09:31:36;;;;;;;19.85;11.93;;;;;;;22.11;23.56;103123.84;5094780;28;20363;-69
2022/03/21 09:34:02;;;;;;;18.08;12.20;;;;;;;20.70;24.60;103137.97;5077843;28;20028;-69
2022/03/21 09:36:27;;;;;;;18.25;13.05;;;;;;;20.36;24.92;103123.84;5096768;28;20028;-68
2022/03/21 09:38:53;;;;;;;18.70;12.25;;;;;;;21.28;23.41;103129.56;5078443;28;20433;-67
2022/03/21 09:41:25;;;;;;;18.10;11.70;;;;;;;20.00;24.34;103101.28;5095428;28;20016;-69
2022/03/21 09:43:52;;;;;;;18.63;11.23;;;;;;;19.57;24.17;103113.69;5096768;28;20028;-67
2022/03/21 09:46:20;;;;;;;16.40;11.13;;;;;;;18.71;25.83;103100.56;5096659;28;20375;-68
2022/03/21 09:48:50;;;;;;;20.13;11.90;;;;;;;17.42;28.14;103091.31;5078232;28;20047;-67
2022/03/21 09:51:24;;;;;;;19.38;10.52;;;;;;;17.26;25.73;103100.06;5095686;28;20036;-67
2022/03/21 09:53:50;;;;;;;18.65;10.10;;;;;;;17.72;27.06;103100.84;5096802;28;20031;-68
2022/03/21 09:56:18;;;;;;;17.15;10.65;;;;;;;18.37;26.08;103096.72;5096467;28;20020;-71
2022/03/21 09:58:44;;;;;;;15.15;10.18;;;;;;;17.93;25.61;103096.75;5096099;28;20459;-68
2022/03/21 10:01:12;;;;;;;16.85;11.20;;;;;;;17.07;26.08;103094.34;5096354;28;20154;-68
2022/03/21 10:03:38;;;;;;;15.85;10.00;;;;;;;17.73;26.20;103093.81;5096041;28;20038;-68
2022/03/21 10:06:33;;;;;;;15.93;10.93;;;;;;;16.71;26.56;103101.88;5077918;28;20036;-68
2022/03/21 10:09:17;;;;;;;15.35;11.02;;;;;;;15.92;28.04;103101.00;5096021;28;20023;-67
2022/03/21 10:11:51;;;;;;;17.73;11.57;;;;;;;17.18;27.97;103093.13;5078987;28;20020;-67
2022/03/21 10:14:33;;;;;;;20.88;11.40;;;;;;;17.27;27.14;103094.69;5077885;28;20024;-68
2022/03/21 10:17:03;;;;;;;18.00;10.90;;;;;;;16.83;28.64;103095.31;5095876;28;20020;-68
2022/03/21 10:19:51;;;;;;;17.70;11.02;;;;;;;17.13;28.59;103090.22;5094296;28;20448;-69
2022/03/21 10:22:43;;;;;;;18.33;11.70;;;;;;;17.75;27.34;103084.81;5062635;28;20027;-68
2022/03/21 10:25:17;;;;;;;19.70;10.35;;;;;;;17.32;26.58;103087.16;5077906;28;20032;-70
2022/03/21 10:27:44;;;;;;;17.25;10.63;;;;;;;16.65;27.13;103087.69;5078560;28;20456;-68
2022/03/21 10:30:15;;;;;;;17.77;10.85;;;;;;;16.52;27.51;103091.88;5077699;28;20073;-67
2022/03/21 10:32:54;;;;;;;18.25;10.75;;;;;;;15.97;27.59;103096.13;5095817;28;20031;-67
2022/03/21 10:35:27;;;;;;;17.63;11.07;;;;;;;16.52;27.54;103097.09;5077648;28;20016;-68
2022/03/21 10:38:01;;;;;;;16.30;11.00;;;;;;;16.58;26.94;103091.97;5076051;28;20360;-68
2022/03/21 10:40:44;;;;;;;19.88;11.07;;;;;;;16.81;27.09;103088.66;5094099;28;20298;-69
2022/03/21 10:43:18;;;;;;;21.85;11.05;;;;;;;16.61;26.62;103091.66;5094485;28;20020;-67
2022/03/21 10:45:49;;;;;;;17.73;10.60;;;;;;;17.55;26.39;103089.72;5094399;28;20035;-67
2022/03/21 10:48:32;;;;;;;15.77;10.75;;;;;;;17.68;25.89;103091.72;5075796;28;20106;-68
2022/03/21 10:51:01;;;;;;;17.00;11.50;;;;;;;17.71;26.34;103083.53;5093798;28;20115;-69
2022/03/21 10:53:37;;;;;;;17.92;11.35;;;;;;;17.69;26.42;103087.31;5075313;28;20097;-68
2022/03/21 10:56:11;;;;;;;16.75;11.02;;;;;;;18.98;25.87;103085.13;5092828;28;20028;-70
2022/03/21 10:58:47;;;;;;;16.42;11.05;;;;;;;16.54;27.58;103080.25;5074580;28;20053;-69
2022/03/21 11:01:18;;;;;;;18.67;11.32;;;;;;;17.12;28.40;103089.41;5092862;28;20020;-71
2022/03/21 11:03:51;;;;;;;18.10;10.77;;;;;;;18.22;27.14;103077.63;5092399;28;20089;-69
2022/03/21 11:06:17;;;;;;;21.98;11.82;;;;;;;17.88;26.81;103086.00;5075443;28;20027;-69
2022/03/21 11:08:50;;;;;;;17.38;11.27;;;;;;;17.48;27.30;103075.72;5092940;28;20024;-68
2022/03/21 11:11:15;;;;;;;17.65;10.93;;;;;;;18.24;26.91;103075.63;5094843;28;20047;-68
2022/03/21 11:13:41;;;;;;;19.23;11.30;;;;;;;18.75;26.25;103073.00;5076886;28;20027;-68
2022/03/21 11:16:07;;;;;;;24.02;11.55;;;;;;;18.41;26.08;103069.22;5094722;28;20028;-69
2022/03/21 11:18:32;;;;;;;18.08;11.75;;;;;;;18.55;27.65;103069.34;5094194;28;20024;-69
2022/03/21 11:20:59;;;;;;;20.65;11.18;;;;;;;18.36;26.51;103066.31;5076371;28;20020;-68
2022/03/21 11:23:25;;;;;;;23.80;10.85;;;;;;;18.09;26.97;103064.34;5076139;28;20020;-68
2022/03/21 11:26:18;;;;;;;17.77;11.32;;;;;;;18.49;26.76;103066.47;5094662;28;20072;-68
2022/03/21 11:28:43;;;;;;;17.50;11.07;;;;;;;18.50;26.05;103059.44;5076273;28;20059;-68
2022/03/21 11:31:47;;;;;;;18.83;11.57;;;;;;;19.00;26.43;103059.56;5094136;28;20090;-68
2022/03/21 11:34:42;;;;;;;19.63;10.55;;;;;;;19.30;25.08;103065.44;5094433;28;20270;-68